Time;durP1;ratioP1;P1;durP2;ratioP2;P2;SDS_P1;SDS_P2;PMS_P1;PMS_P2;Temp;Humidity;BMP_temperature;BMP_pressure;BME280_temperature;BME280_humidity;BME280_pressure;Samples;Min_cycle;Max_cycle;Signal;HPM_P1;HPM_P2
2022/06/01 00:01:28;;;;;;;10.93;6.70;;;;;;;11.24;100.00;101341.66;5095714;28;20056;-71
2022/06/01 00:03:54;;;;;;;11.98;6.28;;;;;;;11.20;100.00;101335.44;5097243;28;20089;-71
2022/06/01 00:06:19;;;;;;;11.13;6.20;;;;;;;11.20;100.00;101330.16;5093146;28;20047;-71
2022/06/01 00:08:45;;;;;;;9.63;7.00;;;;;;;11.24;100.00;101336.41;5094708;28;20047;-71
2022/06/01 00:11:10;;;;;;;9.80;6.03;;;;;;;11.18;100.00;101333.63;5095397;28;20491;-72
2022/06/01 00:13:37;;;;;;;7.80;5.47;;;;;;;11.16;100.00;101332.72;5094787;28;20028;-72
2022/06/01 00:16:03;;;;;;;8.35;4.93;;;;;;;11.11;100.00;101320.34;5094736;28;20032;-70
2022/06/01 00:18:28;;;;;;;7.68;5.00;;;;;;;11.05;100.00;101325.44;5094860;28;20028;-72
2022/06/01 00:20:54;;;;;;;9.10;5.25;;;;;;;11.04;100.00;101312.25;5094541;28;20020;-71
2022/06/01 00:23:20;;;;;;;6.80;4.80;;;;;;;11.00;100.00;101316.59;5092462;28;20024;-71
2022/06/01 00:25:46;;;;;;;6.82;5.50;;;;;;;10.94;100.00;101305.91;5097026;28;20063;-70
2022/06/01 00:28:12;;;;;;;9.43;6.22;;;;;;;11.02;100.00;101298.19;5091934;28;20077;-71
2022/06/01 00:30:37;;;;;;;8.20;5.95;;;;;;;11.01;100.00;101302.53;5092309;28;20020;-72
2022/06/01 00:33:03;;;;;;;9.30;6.97;;;;;;;11.05;100.00;101304.38;5093219;28;20438;-72
2022/06/01 00:35:30;;;;;;;10.35;7.32;;;;;;;11.01;100.00;101297.28;5094481;28;20471;-71
2022/06/01 00:37:55;;;;;;;8.80;7.72;;;;;;;11.03;100.00;101310.47;5094215;28;20040;-71
2022/06/01 00:40:28;;;;;;;9.48;7.85;;;;;;;10.95;100.00;101313.81;5094659;28;20480;-72
2022/06/01 00:42:57;;;;;;;12.63;9.55;;;;;;;10.90;100.00;101314.59;5094599;28;20028;-71
2022/06/01 00:45:24;;;;;;;12.73;9.05;;;;;;;10.93;100.00;101314.63;5093738;28;20036;-71
2022/06/01 00:47:51;;;;;;;14.40;10.75;;;;;;;10.91;100.00;101324.28;5099976;28;20024;-71
2022/06/01 00:50:22;;;;;;;16.05;10.48;;;;;;;10.92;100.00;101326.03;5093088;28;20132;-71
2022/06/01 00:52:58;;;;;;;15.85;12.23;;;;;;;10.96;100.00;101325.28;5094249;28;20111;-71
2022/06/01 00:55:32;;;;;;;18.98;13.95;;;;;;;10.99;100.00;101329.69;5091408;28;20027;-71
2022/06/01 00:58:04;;;;;;;19.77;15.88;;;;;;;11.02;100.00;101335.03;5102833;28;20059;-72
2022/06/01 01:00:33;;;;;;;20.42;15.68;;;;;;;11.01;100.00;101342.03;5099719;28;20020;-72
2022/06/01 01:03:03;;;;;;;18.42;14.50;;;;;;;11.04;100.00;101328.97;5100122;28;20503;-71
2022/06/01 01:05:33;;;;;;;19.60;13.35;;;;;;;11.03;100.00;101326.25;5093342;28;20028;-72
2022/06/01 01:08:00;;;;;;;19.92;14.35;;;;;;;11.05;100.00;101321.94;5091649;28;20031;-71
2022/06/01 01:10:25;;;;;;;15.80;12.52;;;;;;;10.92;100.00;101328.66;5093228;28;20024;-71
2022/06/01 01:12:58;;;;;;;18.13;12.68;;;;;;;10.90;100.00;101330.38;5095604;28;20092;-71
2022/06/01 01:15:55;;;;;;;21.92;13.60;;;;;;;10.97;100.00;101327.03;5094119;28;20020;-70
2022/06/01 01:18:27;;;;;;;19.02;14.07;;;;;;;10.95;100.00;101331.38;5093504;28;20077;-70
2022/06/01 01:21:16;;;;;;;23.23;14.57;;;;;;;10.91;100.00;101329.53;5094005;28;20031;-72
2022/06/01 01:23:44;;;;;;;20.13;14.02;;;;;;;10.87;100.00;101336.47;5092486;28;20035;-71
2022/06/01 01:26:10;;;;;;;21.67;14.30;;;;;;;10.87;100.00;101332.94;5091277;28;20097;-70
2022/06/01 01:28:35;;;;;;;19.60;14.82;;;;;;;10.94;100.00;101330.47;5091664;28;20060;-71
2022/06/01 01:31:10;;;;;;;27.10;16.75;;;;;;;11.04;100.00;101334.22;5093876;28;20027;-71
2022/06/01 01:33:35;;;;;;;20.05;14.60;;;;;;;11.03;100.00;101329.81;5089288;28;20040;-71
2022/06/01 01:36:05;;;;;;;19.38;14.88;;;;;;;10.97;100.00;101316.50;5100441;28;20103;-70
2022/06/01 01:38:51;;;;;;;20.33;14.20;;;;;;;11.02;100.00;101309.59;5092675;28;20107;-71
2022/06/01 01:41:48;;;;;;;16.95;13.10;;;;;;;11.06;100.00;101306.16;5096575;28;20635;-72
2022/06/01 01:44:14;;;;;;;19.17;12.00;;;;;;;11.12;100.00;101310.66;5093186;28;20079;-72
2022/06/01 01:46:42;;;;;;;16.05;12.52;;;;;;;11.14;100.00;101315.13;5093594;28;20031;-71
2022/06/01 01:49:08;;;;;;;15.95;11.82;;;;;;;11.17;100.00;101323.97;5093374;28;20487;-71
2022/06/01 01:51:34;;;;;;;14.93;11.65;;;;;;;11.14;100.00;101344.09;5096635;28;20103;-72
2022/06/01 01:54:00;;;;;;;16.45;12.60;;;;;;;11.18;100.00;101346.78;5092034;28;20114;-71
2022/06/01 01:56:41;;;;;;;20.33;14.32;;;;;;;11.24;100.00;101357.47;5101602;28;20026;-72
2022/06/01 01:59:44;;;;;;;24.80;14.50;;;;;;;11.19;100.00;101328.41;5097232;28;20052;-70
2022/06/01 02:02:28;;;;;;;18.50;12.02;;;;;;;11.08;100.00;101330.81;5094488;28;20468;-71
2022/06/01 02:08:15;;;;;;;28.65;13.15;;;;;;;10.90;100.00;101361.97;5093033;28;19971;-72
2022/06/01 02:13:25;;;;;;;9.90;5.57;;;;;;;10.49;100.00;101330.28;5101438;28;20071;-70
2022/06/01 02:15:53;;;;;;;7.03;2.80;;;;;;;10.41;100.00;101336.22;5098782;28;20067;-71
2022/06/01 02:18:25;;;;;;;4.15;2.17;;;;;;;10.16;100.00;101339.03;5092984;28;20054;-71
2022/06/01 02:21:04;;;;;;;7.05;2.70;;;;;;;9.96;100.00;101337.66;5094414;28;20494;-71
2022/06/01 02:23:31;;;;;;;3.78;2.10;;;;;;;9.88;100.00;101328.69;5100983;28;20461;-70
2022/06/01 02:25:58;;;;;;;7.32;2.30;;;;;;;9.87;100.00;101331.28;5091426;28;20065;-70
2022/06/01 02:28:24;;;;;;;3.58;2.33;;;;;;;9.82;100.00;101339.06;5092521;28;20024;-70
2022/06/01 02:30:52;;;;;;;4.78;2.00;;;;;;;9.77;100.00;101331.03;5103635;28;20102;-70
2022/06/01 02:33:21;;;;;;;3.97;1.90;;;;;;;9.59;100.00;101322.63;5092839;28;20490;-71
2022/06/01 02:35:49;;;;;;;3.88;1.67;;;;;;;9.55;100.00;101315.50;5092900;28;20109;-71
2022/06/01 02:38:22;;;;;;;5.15;2.35;;;;;;;9.62;100.00;101309.59;5094586;28;20119;-70
2022/06/01 02:40:47;;;;;;;4.03;2.03;;;;;;;9.64;100.00;101300.00;5092895;28;20023;-70
2022/06/01 02:43:13;;;;;;;5.03;2.28;;;;;;;9.57;100.00;101296.31;5093462;28;20023;-70
2022/06/01 02:45:40;;;;;;;2.10;1.90;;;;;;;9.53;100.00;101286.56;5092011;28;20025;-70
2022/06/01 02:48:06;;;;;;;3.75;2.50;;;;;;;9.59;100.00;101286.75;5093446;28;20059;-69
2022/06/01 02:50:34;;;;;;;2.92;2.25;;;;;;;9.65;100.00;101285.13;5092999;28;20023;-69
2022/06/01 02:53:00;;;;;;;3.92;2.60;;;;;;;9.63;100.00;101279.84;5094660;28;20491;-69
2022/06/01 02:55:27;;;;;;;3.55;2.30;;;;;;;9.51;100.00;101290.91;5087311;28;20024;-69
2022/06/01 02:57:54;;;;;;;2.63;2.13;;;;;;;9.52;100.00;101284.81;5096279;28;20071;-69
2022/06/01 03:00:20;;;;;;;2.70;1.85;;;;;;;9.39;100.00;101280.03;5094818;28;20028;-70
2022/06/01 03:02:48;;;;;;;7.05;2.25;;;;;;;9.32;100.00;101288.56;5103795;28;20032;-70
2022/06/01 03:05:16;;;;;;;3.65;3.00;;;;;;;9.31;100.00;101285.06;5092292;28;20135;-70
2022/06/01 03:07:42;;;;;;;6.70;3.15;;;;;;;9.35;100.00;101289.56;5092846;28;20045;-71
2022/06/01 03:10:09;;;;;;;3.33;2.80;;;;;;;9.23;100.00;101289.22;5089876;28;20115;-70
2022/06/01 03:12:35;;;;;;;5.10;3.50;;;;;;;9.16;100.00;101292.50;5094046;28;20036;-71
2022/06/01 03:15:01;;;;;;;4.60;3.78;;;;;;;9.17;100.00;101294.25;5104094;28;20031;-71
2022/06/01 03:17:27;;;;;;;7.82;3.88;;;;;;;9.06;100.00;101300.09;5092280;28;20432;-70
2022/06/01 03:19:52;;;;;;;5.20;3.97;;;;;;;9.10;100.00;101293.19;5090802;28;20032;-69
2022/06/01 03:22:18;;;;;;;5.80;4.22;;;;;;;9.11;100.00;101294.97;5096954;28;20024;-69
2022/06/01 03:24:44;;;;;;;6.13;4.18;;;;;;;9.05;100.00;101300.06;5092137;28;20053;-70
2022/06/01 03:27:09;;;;;;;7.95;4.60;;;;;;;9.03;100.00;101297.38;5102018;28;20489;-70
2022/06/01 03:29:35;;;;;;;8.95;5.63;;;;;;;8.99;100.00;101303.38;5100557;28;20550;-71
2022/06/01 03:32:00;;;;;;;5.00;4.30;;;;;;;9.06;100.00;101291.31;5095374;28;20022;-70
2022/06/01 03:34:28;;;;;;;8.77;5.18;;;;;;;9.02;100.00;101300.88;5105305;28;20031;-69
2022/06/01 03:36:54;;;;;;;7.95;4.93;;;;;;;9.06;100.00;101296.56;5100768;28;20455;-70
2022/06/01 03:39:20;;;;;;;11.70;6.72;;;;;;;9.22;100.00;101297.94;5097638;28;20027;-70
2022/06/01 03:41:45;;;;;;;8.95;6.10;;;;;;;9.10;100.00;101295.81;5099249;28;20076;-71
2022/06/01 03:47:09;;;;;;;7.95;5.38;;;;;;;9.06;100.00;101305.34;5094993;28;20089;-70
2022/06/01 03:49:35;;;;;;;13.40;6.25;;;;;;;8.98;100.00;101301.63;5095578;28;20369;-69
2022/06/01 03:52:00;;;;;;;12.85;6.22;;;;;;;8.93;100.00;101311.06;5095313;28;20085;-70
2022/06/01 03:54:27;;;;;;;7.05;5.47;;;;;;;8.98;100.00;101309.50;5094344;28;20044;-70
2022/06/01 03:56:52;;;;;;;10.05;5.68;;;;;;;8.96;100.00;101313.78;5102656;28;20032;-71
2022/06/01 03:59:17;;;;;;;9.50;6.13;;;;;;;8.85;100.00;101310.81;5094396;28;20391;-70
2022/06/01 04:01:43;;;;;;;8.80;5.55;;;;;;;8.84;100.00;101310.78;5093073;28;20024;-69
2022/06/01 04:04:08;;;;;;;13.15;6.75;;;;;;;8.84;100.00;101305.53;5093919;28;20024;-70
2022/06/01 04:06:33;;;;;;;12.27;6.95;;;;;;;8.94;100.00;101311.13;5094309;28;20480;-70
2022/06/01 04:08:59;;;;;;;13.57;7.07;;;;;;;8.95;100.00;101312.00;5095348;28;20024;-71
2022/06/01 04:11:25;;;;;;;7.63;6.53;;;;;;;8.83;100.00;101314.25;5094892;28;20502;-70
2022/06/01 04:13:50;;;;;;;10.90;6.72;;;;;;;8.87;100.00;101309.16;5089507;28;20061;-70
2022/06/01 04:16:18;;;;;;;14.05;6.72;;;;;;;8.83;100.00;101315.16;5097132;28;20020;-71
2022/06/01 04:18:45;;;;;;;11.80;7.38;;;;;;;8.82;100.00;101318.63;5108690;28;20115;-71
2022/06/01 04:21:10;;;;;;;16.17;7.20;;;;;;;8.84;100.00;101321.28;5093874;28;20050;-71
2022/06/01 04:23:36;;;;;;;12.43;7.10;;;;;;;8.81;100.00;101316.81;5109202;28;20035;-71
2022/06/01 04:26:01;;;;;;;10.77;7.18;;;;;;;8.86;100.00;101315.25;5099696;28;20108;-71
2022/06/01 04:28:26;;;;;;;11.80;8.43;;;;;;;8.94;100.00;101313.75;5094669;28;20434;-71
2022/06/01 04:30:52;;;;;;;12.25;8.10;;;;;;;8.91;100.00;101312.75;5093571;28;20517;-70
2022/06/01 04:33:18;;;;;;;8.68;6.93;;;;;;;8.93;100.00;101317.19;5091840;28;20024;-71
2022/06/01 04:35:43;;;;;;;13.50;8.05;;;;;;;8.93;100.00;101316.31;5105250;28;20035;-70
2022/06/01 04:38:14;;;;;;;11.13;7.88;;;;;;;8.97;100.00;101310.31;5095986;28;20020;-70
2022/06/01 04:40:47;;;;;;;12.40;8.70;;;;;;;9.11;100.00;101311.66;5094281;28;20020;-70
2022/06/01 04:43:15;;;;;;;16.73;8.63;;;;;;;9.16;100.00;101306.53;5082164;28;20103;-71
2022/06/01 04:45:41;;;;;;;9.27;7.95;;;;;;;9.17;100.00;101312.66;5094148;28;20024;-71
2022/06/01 04:48:07;;;;;;;11.98;8.45;;;;;;;9.14;100.00;101316.06;5093648;28;20031;-70
2022/06/01 04:50:33;;;;;;;12.82;8.10;;;;;;;9.19;100.00;101313.59;5095183;28;20071;-70
2022/06/01 04:52:59;;;;;;;12.77;9.18;;;;;;;9.24;100.00;101315.50;5098472;28;20077;-69
2022/06/01 04:55:25;;;;;;;12.82;9.93;;;;;;;9.33;100.00;101316.63;5094940;28;20024;-71
2022/06/01 04:57:50;;;;;;;14.70;9.25;;;;;;;9.40;100.00;101316.84;5108884;28;20524;-71
2022/06/01 05:00:16;;;;;;;14.30;9.45;;;;;;;9.47;100.00;101315.31;5100940;28;20020;-71
2022/06/01 05:02:42;;;;;;;12.88;9.85;;;;;;;9.55;100.00;101318.13;5103300;28;20024;-70
2022/06/01 05:05:08;;;;;;;14.02;10.18;;;;;;;9.59;100.00;101318.28;5095358;28;20080;-70
2022/06/01 05:07:34;;;;;;;15.82;10.27;;;;;;;9.67;100.00;101322.84;5091275;28;20024;-70
2022/06/01 05:09:59;;;;;;;17.42;10.25;;;;;;;9.72;100.00;101323.88;5097268;28;20023;-70
2022/06/01 05:12:24;;;;;;;12.20;9.85;;;;;;;9.79;100.00;101326.72;5094413;28;20083;-70
2022/06/01 05:14:50;;;;;;;14.85;9.90;;;;;;;9.81;100.00;101325.84;5093594;28;20027;-70
2022/06/01 05:17:15;;;;;;;14.88;10.82;;;;;;;9.87;100.00;101328.66;5093400;28;20023;-68
2022/06/01 05:19:41;;;;;;;12.63;10.27;;;;;;;9.92;100.00;101329.69;5093691;28;20547;-68
2022/06/01 05:22:06;;;;;;;17.65;11.50;;;;;;;9.98;100.00;101329.81;5103302;28;20020;-68
2022/06/01 05:24:31;;;;;;;18.15;11.13;;;;;;;9.99;100.00;101336.88;5093560;28;20028;-70
2022/06/01 05:26:57;;;;;;;17.30;11.57;;;;;;;10.07;100.00;101327.44;5095774;28;20051;-69
2022/06/01 05:29:22;;;;;;;16.85;11.88;;;;;;;10.15;100.00;101326.75;5107476;28;20025;-69
2022/06/01 05:31:48;;;;;;;17.60;12.68;;;;;;;10.21;100.00;101334.81;5092868;28;20047;-69
2022/06/01 05:34:14;;;;;;;20.08;11.50;;;;;;;10.26;100.00;101333.19;5090407;28;20028;-70
2022/06/01 05:36:39;;;;;;;16.38;11.48;;;;;;;10.32;100.00;101322.81;5089348;28;20607;-71
2022/06/01 05:39:04;;;;;;;15.95;11.68;;;;;;;10.38;100.00;101327.41;5091067;28;20028;-70
2022/06/01 05:41:30;;;;;;;15.30;11.38;;;;;;;10.46;100.00;101333.72;5092807;28;20089;-70
2022/06/01 05:43:55;;;;;;;16.35;10.98;;;;;;;10.50;100.00;101334.69;5103462;28;20028;-69
2022/06/01 05:46:22;;;;;;;15.48;10.98;;;;;;;10.52;100.00;101338.25;5096007;28;20349;-71
2022/06/01 05:48:47;;;;;;;18.08;11.48;;;;;;;10.62;100.00;101337.59;5090141;28;20397;-70
2022/06/01 05:51:13;;;;;;;17.83;11.30;;;;;;;10.66;100.00;101342.09;5102417;28;20112;-71
2022/06/01 05:53:38;;;;;;;17.00;11.38;;;;;;;10.72;100.00;101338.75;5099147;28;20459;-71
2022/06/01 05:56:04;;;;;;;13.90;10.35;;;;;;;10.78;100.00;101336.25;5092146;28;20142;-71
2022/06/01 05:58:30;;;;;;;17.67;10.55;;;;;;;10.84;100.00;101343.38;5096215;28;20036;-71
2022/06/01 06:01:00;;;;;;;12.43;10.27;;;;;;;10.90;100.00;101340.91;5109160;28;20023;-71
2022/06/01 06:03:26;;;;;;;16.73;10.32;;;;;;;10.97;100.00;101342.81;5098971;28;20534;-71
2022/06/01 06:08:39;;;;;;;14.98;9.75;;;;;;;11.17;100.00;101350.31;5093038;28;20539;-70
2022/06/01 06:11:06;;;;;;;11.40;8.98;;;;;;;11.24;100.00;101352.22;5093602;28;20101;-70
2022/06/01 06:13:33;;;;;;;12.30;9.18;;;;;;;11.31;100.00;101354.09;5093478;28;20028;-70
2022/06/01 06:15:59;;;;;;;12.02;8.95;;;;;;;11.38;100.00;101353.41;5093783;28;20019;-69
2022/06/01 06:18:24;;;;;;;10.60;7.85;;;;;;;11.46;100.00;101354.47;5090099;28;20027;-69
2022/06/01 06:20:50;;;;;;;12.00;7.03;;;;;;;11.55;100.00;101359.00;5093160;28;20035;-69
2022/06/01 06:23:16;;;;;;;12.18;7.35;;;;;;;11.67;100.00;101365.41;5096793;28;20061;-70
2022/06/01 06:25:42;;;;;;;8.93;6.72;;;;;;;11.77;100.00;101362.09;5113538;28;20016;-69
2022/06/01 06:28:08;;;;;;;8.32;6.65;;;;;;;11.86;100.00;101361.41;5113588;28;20102;-69
2022/06/01 06:30:35;;;;;;;9.45;5.53;;;;;;;11.89;100.00;101364.09;5113582;28;20023;-69
2022/06/01 06:33:00;;;;;;;11.43;3.95;;;;;;;11.95;100.00;101366.88;5104988;28;20020;-68
2022/06/01 06:35:26;;;;;;;4.38;2.88;;;;;;;11.91;100.00;101365.91;5102233;28;20516;-69
2022/06/01 06:37:51;;;;;;;5.13;3.35;;;;;;;11.87;100.00;101365.78;5100181;28;20034;-70
2022/06/01 06:40:17;;;;;;;3.50;2.08;;;;;;;11.82;100.00;101369.22;5113590;28;20518;-70
2022/06/01 06:42:43;;;;;;;4.28;2.28;;;;;;;11.81;100.00;101377.13;5094419;28;20456;-68
2022/06/01 06:45:09;;;;;;;6.18;2.30;;;;;;;11.77;100.00;101378.81;5092684;28;20123;-68
2022/06/01 06:47:34;;;;;;;3.53;2.63;;;;;;;11.85;100.00;101388.63;5094194;28;20107;-69
2022/06/01 06:50:01;;;;;;;4.75;2.60;;;;;;;11.88;100.00;101389.59;5091382;28;20127;-68
2022/06/01 06:52:26;;;;;;;3.70;2.75;;;;;;;11.95;100.00;101385.31;5098338;28;20024;-69
2022/06/01 06:54:52;;;;;;;3.33;2.00;;;;;;;12.01;100.00;101385.47;5092984;28;20065;-68
2022/06/01 06:57:17;;;;;;;5.45;2.83;;;;;;;12.10;100.00;101390.91;5111635;28;20023;-68
2022/06/01 06:59:43;;;;;;;2.38;1.92;;;;;;;12.09;100.00;101383.84;5092416;28;20036;-68
2022/06/01 07:02:09;;;;;;;4.50;1.90;;;;;;;12.16;100.00;101394.53;5095304;28;20031;-67
2022/06/01 07:04:35;;;;;;;2.45;1.45;;;;;;;12.07;100.00;101396.16;5091674;28;20055;-69
2022/06/01 07:07:01;;;;;;;4.40;2.00;;;;;;;12.12;100.00;101398.84;5107512;28;20016;-69
2022/06/01 07:09:26;;;;;;;3.70;1.48;;;;;;;12.03;100.00;101398.66;5097710;28;20126;-69
2022/06/01 07:11:52;;;;;;;1.95;1.40;;;;;;;12.04;100.00;101401.34;5095025;28;20107;-67
2022/06/01 07:14:17;;;;;;;5.78;1.35;;;;;;;12.10;100.00;101400.56;5105984;28;20155;-69
2022/06/01 07:16:42;;;;;;;3.83;1.75;;;;;;;12.24;100.00;101398.22;5098948;28;20034;-69
2022/06/01 07:19:08;;;;;;;6.93;1.80;;;;;;;12.37;100.00;101404.59;5103742;28;20043;-69
2022/06/01 07:21:38;;;;;;;5.15;1.70;;;;;;;12.47;100.00;101407.41;5100424;28;20102;-69
2022/06/01 07:24:05;;;;;;;1.83;1.45;;;;;;;12.56;100.00;101405.78;5105724;28;20103;-69
2022/06/01 07:26:33;;;;;;;4.57;1.80;;;;;;;12.66;100.00;101399.81;5101940;28;20031;-68
2022/06/01 07:28:59;;;;;;;2.35;1.55;;;;;;;12.82;100.00;101412.41;5116906;28;20466;-69
2022/06/01 07:31:24;;;;;;;3.60;1.33;;;;;;;12.91;100.00;101408.16;5115654;28;20026;-68
2022/06/01 07:33:51;;;;;;;2.60;1.45;;;;;;;12.94;100.00;101417.03;5100979;28;20023;-68
2022/06/01 07:36:17;;;;;;;6.32;1.70;;;;;;;12.90;100.00;101416.91;5094669;28;20027;-68
2022/06/01 07:44:16;;;;;;;5.82;1.45;;;;;;;12.80;100.00;101424.72;5096066;28;20089;-68
2022/06/01 07:46:41;;;;;;;1.88;1.67;;;;;;;12.75;100.00;101429.03;5095584;28;20027;-68
2022/06/01 07:49:07;;;;;;;4.03;1.70;;;;;;;12.77;100.00;101423.78;5095773;28;20040;-68
2022/06/01 07:51:34;;;;;;;2.13;1.48;;;;;;;12.80;100.00;101424.72;5095807;28;20066;-68
2022/06/01 07:53:59;;;;;;;2.45;1.50;;;;;;;12.95;100.00;101431.09;5096259;28;20028;-68
2022/06/01 07:56:25;;;;;;;4.10;1.73;;;;;;;12.93;100.00;101432.84;5095951;28;20024;-69
2022/06/01 07:58:51;;;;;;;1.60;1.27;;;;;;;12.96;100.00;101427.59;5095744;28;20498;-69
2022/06/01 08:01:20;;;;;;;1.30;1.20;;;;;;;12.85;100.00;101424.78;5094711;28;20028;-69
2022/06/01 08:03:45;;;;;;;4.30;1.77;;;;;;;12.90;100.00;101428.41;5099122;28;20031;-68
2022/06/01 08:06:11;;;;;;;2.25;1.27;;;;;;;12.90;100.00;101427.50;5116079;27;20024;-68
2022/06/01 08:08:36;;;;;;;1.48;1.30;;;;;;;12.98;100.00;101432.06;5115937;28;20031;-68
2022/06/01 08:11:01;;;;;;;1.23;1.13;;;;;;;12.97;100.00;101427.63;5116005;28;20023;-68
2022/06/01 08:13:27;;;;;;;4.07;1.23;;;;;;;12.99;100.00;101432.94;5093797;28;20065;-69
2022/06/01 08:15:55;;;;;;;3.88;1.42;;;;;;;13.15;100.00;101432.28;5105988;28;20023;-69
2022/06/01 08:18:23;;;;;;;3.15;1.45;;;;;;;13.33;100.00;101433.44;5110600;27;20368;-69
2022/06/01 08:20:49;;;;;;;2.22;1.27;;;;;;;13.38;100.00;101439.72;5095305;28;20106;-69
2022/06/01 08:23:16;;;;;;;2.67;1.50;;;;;;;13.48;100.00;101432.81;5094533;28;20499;-68
2022/06/01 08:25:42;;;;;;;3.88;1.48;;;;;;;13.59;100.00;101436.50;5094734;28;20024;-68
2022/06/01 08:28:08;;;;;;;2.00;1.38;;;;;;;13.71;100.00;101429.59;5095126;28;20383;-69
2022/06/01 08:30:35;;;;;;;2.75;1.20;;;;;;;13.86;100.00;101427.13;5094239;28;20023;-68
2022/06/01 08:33:01;;;;;;;5.32;1.42;;;;;;;13.98;100.00;101435.25;5113398;28;20399;-69
2022/06/01 08:35:31;;;;;;;2.67;1.52;;;;;;;13.95;100.00;101436.97;5113652;28;20020;-69
2022/06/01 08:37:57;;;;;;;5.13;1.50;;;;;;;14.01;100.00;101431.72;5090542;28;20459;-69
2022/06/01 08:40:27;;;;;;;3.47;1.52;;;;;;;13.82;100.00;101439.44;5100021;28;20024;-69
2022/06/01 08:42:59;;;;;;;4.47;1.45;;;;;;;13.85;100.00;101440.34;5079360;28;20044;-69
2022/06/01 08:45:26;;;;;;;2.20;1.20;;;;;;;14.03;100.00;101442.34;5094793;28;20028;-70
2022/06/01 08:47:52;;;;;;;2.97;1.50;;;;;;;14.30;100.00;101447.06;5095113;28;20020;-68
2022/06/01 08:50:25;;;;;;;4.10;1.60;;;;;;;14.30;100.00;101447.06;5094587;28;20075;-70
2022/06/01 08:52:53;;;;;;;1.58;1.42;;;;;;;14.20;100.00;101442.53;5103092;28;20066;-68
2022/06/01 08:55:18;;;;;;;2.03;1.83;;;;;;;14.19;100.00;101453.97;5098679;28;20024;-69
2022/06/01 08:57:56;;;;;;;4.00;1.52;;;;;;;14.28;100.00;101451.44;5094475;28;20050;-69
2022/06/01 09:00:26;;;;;;;1.98;1.35;;;;;;;14.39;100.00;101446.25;5095579;28;20072;-69
2022/06/01 09:03:07;;;;;;;2.95;1.38;;;;;;;14.44;96.31;101444.56;5098983;28;20494;-69
2022/06/01 09:05:44;;;;;;;1.70;1.02;;;;;;;14.72;98.57;101450.13;5099145;28;20032;-68
2022/06/01 09:08:40;;;;;;;1.75;0.98;;;;;;;14.81;92.46;101440.53;5114713;28;20039;-69
2022/06/01 09:11:09;;;;;;;1.60;1.10;;;;;;;14.95;95.25;101453.03;5113334;28;20028;-69
2022/06/01 09:14:02;;;;;;;1.77;1.23;;;;;;;14.62;93.33;101459.72;5102588;28;20501;-69
2022/06/01 09:16:41;;;;;;;1.42;1.23;;;;;;;14.53;96.01;101460.53;5114569;28;20035;-69
2022/06/01 09:19:16;;;;;;;2.58;1.20;;;;;;;14.64;96.37;101469.50;5103134;28;20032;-69
2022/06/01 09:24:35;;;;;;;3.28;1.40;;;;;;;14.80;94.25;101473.19;5099605;28;20411;-68
2022/06/01 09:27:03;;;;;;;3.58;1.20;;;;;;;14.96;95.22;101473.31;5111035;28;20024;-71
2022/06/01 09:29:32;;;;;;;1.48;1.30;;;;;;;14.92;93.36;101458.28;5093385;28;20031;-68
2022/06/01 09:32:07;;;;;;;2.75;1.50;;;;;;;15.10;95.61;101477.00;5091689;28;20112;-69
2022/06/01 09:34:44;;;;;;;1.73;1.27;;;;;;;15.24;92.84;101469.13;5098625;28;20038;-70
2022/06/01 09:37:22;;;;;;;2.50;1.17;;;;;;;15.27;93.19;101477.09;5091829;28;20024;-68
2022/06/01 09:39:56;;;;;;;1.50;1.38;;;;;;;15.42;95.66;101476.31;5091024;28;20028;-70
2022/06/01 09:42:26;;;;;;;3.45;1.60;;;;;;;15.19;93.77;101473.50;5093533;28;20107;-68
2022/06/01 09:44:55;;;;;;;3.58;1.55;;;;;;;15.01;96.00;101480.44;5096764;28;20441;-69
2022/06/01 09:47:44;;;;;;;2.28;1.50;;;;;;;14.93;97.80;101492.72;5110064;28;20408;-68
2022/06/01 09:50:30;;;;;;;4.18;1.60;;;;;;;14.95;95.17;101480.41;5093320;28;20045;-69
2022/06/01 09:53:00;;;;;;;2.67;1.50;;;;;;;15.11;96.85;101481.41;5082093;28;20482;-68
2022/06/01 09:55:28;;;;;;;1.80;1.38;;;;;;;14.96;94.42;101486.56;5089189;28;20024;-69
2022/06/01 09:58:09;;;;;;;3.40;1.60;;;;;;;14.88;93.61;101489.19;5092357;28;20024;-69
2022/06/01 10:06:27;;;;;;;2.58;1.38;;;;;;;14.99;92.44;101483.97;5093728;28;20108;-68
2022/06/01 10:09:02;;;;;;;2.95;1.70;;;;;;;15.32;92.09;101485.09;5101584;28;20506;-68
2022/06/01 10:11:37;;;;;;;2.08;1.40;;;;;;;15.39;91.60;101476.31;5113726;28;20039;-69
2022/06/01 10:14:12;;;;;;;3.33;2.22;;;;;;;15.24;88.26;101486.81;5103295;28;20038;-69
2022/06/01 10:16:50;;;;;;;1.95;1.55;;;;;;;15.27;90.16;101481.53;5113448;28;20024;-67
2022/06/01 10:19:23;;;;;;;4.45;1.63;;;;;;;15.48;91.25;101481.69;5100850;28;20376;-69
2022/06/01 10:22:04;;;;;;;5.78;1.88;;;;;;;15.71;91.89;101486.25;5093361;28;20055;-68
2022/06/01 10:25:04;;;;;;;4.35;1.70;;;;;;;15.90;88.67;101489.91;5094697;28;20459;-68
2022/06/01 10:27:35;;;;;;;2.08;1.52;;;;;;;16.00;88.43;101485.53;5107543;28;20059;-68
2022/06/01 10:30:26;;;;;;;1.55;1.40;;;;;;;15.87;91.17;101499.63;5113523;28;20030;-69
2022/06/01 10:33:14;;;;;;;4.10;1.33;;;;;;;15.28;89.00;101507.16;5107647;28;20039;-69
2022/06/01 10:35:45;;;;;;;1.55;1.40;;;;;;;15.02;90.76;101507.84;5108386;28;20027;-69
2022/06/01 10:38:17;;;;;;;3.22;1.40;;;;;;;15.07;91.95;101506.13;5087934;28;20032;-67
2022/06/01 10:40:46;;;;;;;1.92;1.30;;;;;;;15.05;92.03;101502.56;5094249;28;20062;-69
2022/06/01 10:43:28;;;;;;;4.30;1.45;;;;;;;15.13;94.10;101508.81;5106468;28;20058;-68
2022/06/01 10:46:38;;;;;;;2.22;1.55;;;;;;;15.22;93.22;101515.06;5102567;28;20024;-69
2022/06/01 10:49:30;;;;;;;3.72;1.48;;;;;;;15.50;91.11;101511.75;5079687;28;20040;-69
2022/06/01 10:52:20;;;;;;;3.00;1.88;;;;;;;15.63;90.95;101514.50;5095922;28;20036;-69
2022/06/01 10:54:59;;;;;;;4.75;1.70;;;;;;;15.54;91.40;101522.38;5097487;28;20073;-68
2022/06/01 10:57:25;;;;;;;3.22;2.20;;;;;;;15.52;88.08;101531.22;5096546;28;20063;-68
2022/06/01 10:59:51;;;;;;;3.72;2.20;;;;;;;15.59;90.97;101531.28;5094854;28;20028;-68
2022/06/01 11:02:44;;;;;;;3.22;2.28;;;;;;;15.32;90.68;101525.75;5094918;28;20078;-69
2022/06/01 11:05:40;;;;;;;3.30;1.95;;;;;;;15.12;90.13;101530.88;5092689;28;20031;-71
2022/06/01 11:08:19;;;;;;;3.88;2.60;;;;;;;15.22;93.99;101541.56;5095177;28;20024;-70
2022/06/01 11:10:57;;;;;;;3.08;2.22;;;;;;;15.12;90.07;101536.19;5090550;28;20024;-70
2022/06/01 11:14:04;;;;;;;4.32;2.65;;;;;;;15.14;93.02;101545.06;5096461;28;20046;-70
2022/06/01 11:16:51;;;;;;;3.17;2.70;;;;;;;15.30;94.68;101529.25;5089315;28;20048;-71
2022/06/01 11:19:35;;;;;;;2.83;2.20;;;;;;;15.50;91.02;101533.00;5094629;28;20024;-70
2022/06/01 11:22:17;;;;;;;4.28;2.40;;;;;;;15.68;88.44;101541.91;5096093;28;20050;-69
2022/06/01 11:24:46;;;;;;;2.92;2.63;;;;;;;15.60;89.41;101538.31;5111289;28;20051;-70
2022/06/01 11:27:24;;;;;;;3.83;2.70;;;;;;;15.43;91.06;101540.88;5096072;28;20103;-68
2022/06/01 11:30:06;;;;;;;4.63;2.85;;;;;;;15.69;92.53;101549.00;5090502;28;20031;-70
2022/06/01 11:32:51;;;;;;;6.32;3.38;;;;;;;16.11;91.12;101539.53;5093867;28;20024;-70
2022/06/01 11:35:24;;;;;;;2.88;2.53;;;;;;;16.05;88.39;101542.19;5095813;28;20056;-69
2022/06/01 11:38:12;;;;;;;4.65;3.10;;;;;;;15.76;89.45;101549.94;5093434;28;20023;-70
2022/06/01 11:40:52;;;;;;;5.60;3.30;;;;;;;15.68;90.32;101547.22;5100846;28;20055;-70
2022/06/01 11:43:37;;;;;;;3.40;2.97;;;;;;;15.91;88.73;101543.88;5094915;28;20096;-69
2022/06/01 11:46:34;;;;;;;6.22;3.67;;;;;;;16.40;88.20;101544.13;5087589;28;20024;-71
2022/06/01 11:49:08;;;;;;;6.35;3.45;;;;;;;16.46;87.73;101548.56;5079594;28;20048;-71
2022/06/01 11:51:37;;;;;;;5.70;3.20;;;;;;;16.56;89.02;101555.66;5095276;28;20028;-70
2022/06/01 11:54:10;;;;;;;3.47;2.75;;;;;;;16.35;85.21;101556.50;5093739;28;20032;-70
2022/06/01 11:56:42;;;;;;;6.00;3.88;;;;;;;15.99;87.63;101551.00;5090414;28;20036;-69